Time;durP1;ratioP1;P1;durP2;ratioP2;P2;SDS_P1;SDS_P2;PMS_P1;PMS_P2;Temp;Humidity;BMP_temperature;BMP_pressure;BME280_temperature;BME280_humidity;BME280_pressure;Samples;Min_cycle;Max_cycle;Signal;HPM_P1;HPM_P2
2023/09/22 00:00:23;;;;;;;8.55;7.85;;;;;;;;;;10099331;28;20066;-69
2023/09/22 00:05:20;;;;;;;7.80;6.97;;;;;;;;;;10093911;28;20054;-69
2023/09/22 00:10:17;;;;;;;8.65;7.95;;;;;;;;;;10107270;28;20396;-69
2023/09/22 00:15:13;;;;;;;8.35;7.60;;;;;;;;;;10104880;28;20058;-68
2023/09/22 00:20:13;;;;;;;8.45;7.75;;;;;;;;;;10098637;28;20061;-69
2023/09/22 00:25:10;;;;;;;8.80;7.95;;;;;;;;;;10101643;28;20130;-68
2023/09/22 00:30:09;;;;;;;9.68;8.88;;;;;;;;;;10098310;28;20047;-68
2023/09/22 00:35:06;;;;;;;10.20;9.30;;;;;;;;;;10098408;28;20578;-68
2023/09/22 00:40:03;;;;;;;11.57;10.00;;;;;;;;;;10100689;28;20055;-66
2023/09/22 00:44:59;;;;;;;14.90;10.77;;;;;;;;;;10106439;28;20051;-68
2023/09/22 00:49:55;;;;;;;11.10;10.18;;;;;;;;;;10083791;28;20142;-67
2023/09/22 00:54:52;;;;;;;11.45;10.45;;;;;;;;;;10081266;28;20129;-67
2023/09/22 00:59:49;;;;;;;11.93;10.88;;;;;;;;;;10088297;28;20129;-66
2023/09/22 01:04:46;;;;;;;12.00;11.00;;;;;;;;;;10093599;28;20791;-68
2023/09/22 01:09:42;;;;;;;13.57;12.48;;;;;;;;;;10093877;28;20089;-68
2023/09/22 01:14:39;;;;;;;12.35;11.25;;;;;;;;;;10105905;28;20134;-67
2023/09/22 01:19:35;;;;;;;13.35;12.25;;;;;;;;;;10100389;28;20054;-67
2023/09/22 01:24:32;;;;;;;13.07;11.88;;;;;;;;;;10092559;28;20534;-68
2023/09/22 01:29:28;;;;;;;13.65;12.45;;;;;;;;;;10098503;28;20042;-68
2023/09/22 01:34:24;;;;;;;13.80;12.40;;;;;;;;;;10085037;28;20078;-68
2023/09/22 01:39:22;;;;;;;12.63;11.55;;;;;;;;;;10082093;28;20059;-69
2023/09/22 01:44:19;;;;;;;11.88;10.75;;;;;;;;;;10096615;28;20061;-68
2023/09/22 01:49:15;;;;;;;8.90;8.10;;;;;;;;;;10112181;28;20135;-68
2023/09/22 01:54:11;;;;;;;9.75;8.88;;;;;;;;;;10093422;28;20102;-68
2023/09/22 01:59:08;;;;;;;9.70;8.90;;;;;;;;;;10106301;28;20059;-68
2023/09/22 02:04:05;;;;;;;9.48;8.68;;;;;;;;;;10091534;28;20050;-68
2023/09/22 02:09:03;;;;;;;9.95;9.07;;;;;;;;;;10098408;28;20093;-68
2023/09/22 02:14:00;;;;;;;9.23;8.30;;;;;;;;;;10097062;28;20042;-68
2023/09/22 02:18:56;;;;;;;8.07;7.45;;;;;;;;;;10095612;28;20681;-68
2023/09/22 02:23:53;;;;;;;7.53;6.88;;;;;;;;;;10098808;28;20078;-68
2023/09/22 02:28:51;;;;;;;8.13;7.53;;;;;;;;;;10095075;28;20054;-68
2023/09/22 02:33:48;;;;;;;7.65;7.05;;;;;;;;;;10100076;28;20451;-68
2023/09/22 02:38:44;;;;;;;7.07;6.57;;;;;;;;;;10099986;28;20061;-68
2023/09/22 02:43:41;;;;;;;7.57;6.97;;;;;;;;;;10091488;28;20134;-68
2023/09/22 02:48:37;;;;;;;8.05;7.40;;;;;;;;;;10103155;28;20050;-68
2023/09/22 02:53:34;;;;;;;7.43;6.82;;;;;;;;;;10104734;28;20059;-68
2023/09/22 02:58:31;;;;;;;7.10;6.00;;;;;;;;;;10096396;28;20046;-68
2023/09/22 03:03:27;;;;;;;7.43;6.90;;;;;;;;;;10109468;28;20673;-68
2023/09/22 03:08:24;;;;;;;7.15;6.55;;;;;;;;;;10092972;28;20056;-68
2023/09/22 03:13:20;;;;;;;7.38;6.85;;;;;;;;;;10112033;28;20082;-68
2023/09/22 03:18:16;;;;;;;7.53;7.00;;;;;;;;;;10100462;28;20523;-69
2023/09/22 03:23:13;;;;;;;7.20;6.70;;;;;;;;;;10111603;28;20143;-68
2023/09/22 03:28:09;;;;;;;7.05;6.45;;;;;;;;;;10090314;28;20726;-69
2023/09/22 03:33:06;;;;;;;7.63;7.03;;;;;;;;;;10111800;28;20055;-70
2023/09/22 03:38:05;;;;;;;7.35;6.75;;;;;;;;;;10105066;28;20109;-70
2023/09/22 03:43:03;;;;;;;7.25;6.65;;;;;;;;;;10105182;28;20050;-70
2023/09/22 03:47:59;;;;;;;7.68;7.07;;;;;;;;;;10086346;28;20157;-71
2023/09/22 03:52:56;;;;;;;7.10;6.50;;;;;;;;;;10090494;28;20055;-71
2023/09/22 03:57:52;;;;;;;7.43;6.82;;;;;;;;;;10094448;28;20106;-71
2023/09/22 04:02:49;;;;;;;7.72;7.13;;;;;;;;;;10087750;28;20094;-71
2023/09/22 04:07:46;;;;;;;7.22;6.53;;;;;;;;;;10094092;28;20060;-70
2023/09/22 04:12:43;;;;;;;8.25;7.65;;;;;;;;;;10099260;28;20051;-71
2023/09/22 04:17:39;;;;;;;9.13;8.43;;;;;;;;;;10101353;28;20053;-71
2023/09/22 04:22:37;;;;;;;10.77;9.88;;;;;;;;;;10099496;28;20735;-69
2023/09/22 04:27:36;;;;;;;10.85;9.95;;;;;;;;;;10089027;28;20047;-71
2023/09/22 04:32:33;;;;;;;11.20;10.20;;;;;;;;;;10080369;28;20595;-71
2023/09/22 04:37:30;;;;;;;13.68;12.38;;;;;;;;;;10088710;28;20081;-72
2023/09/22 04:42:27;;;;;;;15.02;13.73;;;;;;;;;;10095361;28;20113;-71
2023/09/22 04:47:23;;;;;;;15.68;13.88;;;;;;;;;;10094280;28;20057;-73
2023/09/22 04:52:19;;;;;;;16.08;14.38;;;;;;;;;;10105645;28;20061;-72
2023/09/22 04:57:17;;;;;;;14.30;12.80;;;;;;;;;;10093391;28;20047;-72
2023/09/22 05:02:13;;;;;;;15.00;13.70;;;;;;;;;;10096940;28;20054;-72
2023/09/22 05:07:10;;;;;;;17.60;15.70;;;;;;;;;;10084943;28;20050;-72
2023/09/22 05:12:06;;;;;;;16.13;14.73;;;;;;;;;;10090713;28;20133;-72
2023/09/22 05:17:02;;;;;;;17.58;15.88;;;;;;;;;;10079935;28;20055;-71
2023/09/22 05:21:59;;;;;;;16.63;14.98;;;;;;;;;;10078177;28;20051;-71
2023/09/22 05:26:55;;;;;;;17.33;15.73;;;;;;;;;;10086740;28;20063;-71
2023/09/22 05:31:53;;;;;;;17.70;16.10;;;;;;;;;;10107739;28;20047;-71
2023/09/22 05:36:49;;;;;;;19.13;17.15;;;;;;;;;;10090673;28;20578;-72
2023/09/22 05:41:47;;;;;;;18.90;16.35;;;;;;;;;;10057134;28;20047;-72
2023/09/22 05:46:44;;;;;;;18.98;17.20;;;;;;;;;;10094556;28;20055;-71
2023/09/22 05:51:41;;;;;;;17.48;15.82;;;;;;;;;;10096995;28;20146;-72
2023/09/22 05:56:40;;;;;;;18.35;16.35;;;;;;;;;;10089409;28;20086;-72
2023/09/22 06:01:37;;;;;;;18.35;16.27;;;;;;;;;;10096810;28;20105;-72
2023/09/22 06:06:34;;;;;;;19.88;16.60;;;;;;;;;;10082030;28;20125;-72
2023/09/22 06:11:30;;;;;;;16.88;15.27;;;;;;;;;;10060625;28;20078;-72
2023/09/22 06:16:27;;;;;;;21.67;15.90;;;;;;;;;;10090355;28;20051;-72
2023/09/22 06:21:23;;;;;;;16.98;15.27;;;;;;;;;;10088638;28;20057;-72
2023/09/22 06:26:20;;;;;;;15.98;14.50;;;;;;;;;;10095367;28;20054;-72
2023/09/22 06:31:17;;;;;;;17.45;15.65;;;;;;;;;;10087417;28;20181;-72
2023/09/22 06:36:13;;;;;;;17.42;15.90;;;;;;;;;;10094528;28;20055;-72
2023/09/22 06:41:16;;;;;;;16.90;15.10;;;;;;;;;;10102759;28;20047;-72
2023/09/22 06:46:14;;;;;;;15.20;13.88;;;;;;;;;;10099058;28;20062;-72
2023/09/22 06:51:18;;;;;;;15.07;13.77;;;;;;;;;;10091812;28;20786;-72
2023/09/22 06:56:17;;;;;;;15.25;13.85;;;;;;;;;;10101874;28;20493;-71
2023/09/22 07:01:14;;;;;;;14.20;13.00;;;;;;;;;;10078130;28;20078;-72
2023/09/22 07:06:14;;;;;;;15.18;13.70;;;;;;;;;;10095363;28;20105;-73
2023/09/22 07:11:11;;;;;;;14.65;13.23;;;;;;;;;;10095280;28;21731;-72
2023/09/22 07:16:07;;;;;;;13.98;12.40;;;;;;;;;;10090269;28;20054;-71
2023/09/22 07:21:06;;;;;;;15.68;12.27;;;;;;;;;;10099838;28;20080;-72
2023/09/22 07:26:03;;;;;;;15.82;12.10;;;;;;;;;;10096729;28;20047;-71
2023/09/22 07:31:08;;;;;;;13.13;11.70;;;;;;;;;;10086768;28;20051;-72
2023/09/22 07:36:07;;;;;;;12.23;11.13;;;;;;;;;;10098667;28;20055;-72
2023/09/22 07:41:03;;;;;;;12.30;11.00;;;;;;;;;;10078153;28;20117;-72
2023/09/22 07:46:04;;;;;;;13.57;10.75;;;;;;;;;;10095936;28;20054;-72
2023/09/22 07:51:01;;;;;;;12.48;11.27;;;;;;;;;;10093775;28;20069;-72
2023/09/22 07:56:00;;;;;;;11.80;10.77;;;;;;;;;;10092538;28;20051;-73
2023/09/22 08:00:59;;;;;;;12.45;10.55;;;;;;;;;;10094746;28;20058;-72
2023/09/22 08:05:56;;;;;;;12.30;11.23;;;;;;;;;;10099703;28;20482;-72
2023/09/22 08:10:53;;;;;;;13.38;12.10;;;;;;;;;;10097876;28;20047;-72
2023/09/22 08:15:51;;;;;;;13.48;11.18;;;;;;;;;;10100550;28;20126;-71
2023/09/22 08:20:48;;;;;;;12.70;11.48;;;;;;;;;;10111575;28;20139;-71
2023/09/22 08:25:44;;;;;;;12.00;10.85;;;;;;;;;;10090487;28;20574;-71
2023/09/22 08:30:41;;;;;;;11.40;10.35;;;;;;;;;;10107698;28;20221;-71
2023/09/22 08:35:39;;;;;;;10.80;9.80;;;;;;;;;;10090657;28;20411;-71
2023/09/22 08:40:53;;;;;;;11.52;10.38;;;;;;;;;;10095793;28;20074;-72
2023/09/22 08:45:50;;;;;;;10.00;9.10;;;;;;;;;;10102378;28;20046;-72
2023/09/22 08:50:46;;;;;;;9.80;8.90;;;;;;;;;;10102676;28;20121;-71
2023/09/22 08:55:43;;;;;;;9.77;8.75;;;;;;;;;;10095681;28;20082;-71
2023/09/22 09:00:39;;;;;;;9.98;9.00;;;;;;;;;;10102858;28;20533;-72
2023/09/22 09:05:36;;;;;;;9.70;8.57;;;;;;;;;;10101332;28;20051;-71
2023/09/22 09:10:34;;;;;;;9.65;8.68;;;;;;;;;;10099819;28;20179;-72
2023/09/22 09:15:41;;;;;;;8.68;7.88;;;;;;;;;;10103682;28;20051;-72
2023/09/22 09:20:41;;;;;;;9.10;8.10;;;;;;;;;;10084456;28;20094;-72
2023/09/22 09:25:45;;;;;;;8.82;8.00;;;;;;;;;;10094802;28;20074;-72
2023/09/22 09:30:52;;;;;;;9.70;7.53;;;;;;;;;;10102986;28;20518;-71
2023/09/22 09:35:49;;;;;;;8.35;7.55;;;;;;;;;;10099578;28;20061;-72
2023/09/22 09:40:50;;;;;;;8.77;7.45;;;;;;;;;;10090416;28;20053;-72
2023/09/22 09:45:46;;;;;;;7.55;6.93;;;;;;;;;;10100580;28;20049;-72
2023/09/22 09:50:53;;;;;;;7.90;6.85;;;;;;;;;;10092039;28;20610;-72
2023/09/22 09:55:52;;;;;;;7.57;6.80;;;;;;;;;;10078745;28;20053;-72
2023/09/22 10:00:49;;;;;;;8.93;7.03;;;;;;;;;;10088300;28;20069;-71
2023/09/22 10:05:49;;;;;;;8.15;7.18;;;;;;;;;;10101765;28;20057;-72
2023/09/22 10:10:46;;;;;;;7.15;6.45;;;;;;;;;;10102747;28;20070;-71
2023/09/22 10:15:57;;;;;;;7.75;6.95;;;;;;;;;;10099839;28;20052;-71
2023/09/22 10:20:53;;;;;;;8.90;6.82;;;;;;;;;;10088577;28;20093;-72
2023/09/22 10:26:05;;;;;;;7.43;6.68;;;;;;;;;;10091773;28;20102;-71
2023/09/22 10:31:02;;;;;;;7.15;6.47;;;;;;;;;;10095678;28;20149;-71
2023/09/22 10:36:04;;;;;;;8.95;6.50;;;;;;;;;;10083077;28;20116;-71
2023/09/22 10:41:01;;;;;;;7.07;6.38;;;;;;;;;;10085552;28;20050;-71
2023/09/22 10:45:57;;;;;;;6.30;5.70;;;;;;;;;;10094815;28;20069;-71
2023/09/22 10:50:53;;;;;;;6.90;6.20;;;;;;;;;;10103011;28;20058;-71
2023/09/22 10:55:57;;;;;;;6.30;5.70;;;;;;;;;;10102668;28;20066;-71
2023/09/22 11:00:53;;;;;;;15.10;5.87;;;;;;;;;;10108238;28;20050;-71
2023/09/22 11:06:00;;;;;;;7.65;6.05;;;;;;;;;;10103776;28;20659;-71
2023/09/22 11:10:57;;;;;;;6.63;5.50;;;;;;;;;;10098126;28;20397;-71
2023/09/22 11:16:02;;;;;;;7.05;5.90;;;;;;;;;;10083029;28;20571;-71
2023/09/22 11:20:59;;;;;;;8.52;5.90;;;;;;;;;;10085491;28;20057;-70
2023/09/22 11:25:59;;;;;;;7.28;6.57;;;;;;;;;;10111831;28;20529;-71
2023/09/22 11:31:04;;;;;;;7.68;6.28;;;;;;;;;;10085627;28;20066;-71
2023/09/22 11:36:01;;;;;;;9.35;7.13;;;;;;;;;;10095999;28;20126;-71
2023/09/22 11:41:00;;;;;;;7.25;6.63;;;;;;;;;;10081939;28;20047;-71
2023/09/22 11:46:09;;;;;;;8.88;7.05;;;;;;;;;;10091622;28;20055;-71
2023/09/22 11:51:06;;;;;;;8.15;7.30;;;;;;;;;;10095627;28;20051;-71
2023/09/22 11:56:02;;;;;;;7.85;7.15;;;;;;;;;;10092672;28;20059;-71
2023/09/22 12:00:59;;;;;;;7.65;7.00;;;;;;;;;;10103653;28;20429;-72
2023/09/22 12:05:55;;;;;;;7.50;6.82;;;;;;;;;;10103178;28;20074;-72
2023/09/22 12:10:52;;;;;;;7.70;7.00;;;;;;;;;;10094448;28;20048;-72
2023/09/22 12:15:49;;;;;;;7.97;6.55;;;;;;;;;;10093432;28;20102;-72
2023/09/22 12:20:45;;;;;;;7.80;7.00;;;;;;;;;;10090491;28;20058;-72
2023/09/22 12:25:42;;;;;;;8.02;7.22;;;;;;;;;;10094979;28;20078;-72
2023/09/22 12:30:38;;;;;;;7.45;6.80;;;;;;;;;;10095187;28;20521;-72
2023/09/22 12:35:34;;;;;;;7.50;6.80;;;;;;;;;;10099464;28;20073;-71
2023/09/22 12:40:31;;;;;;;7.80;7.07;;;;;;;;;;10084513;28;20047;-71
2023/09/22 12:45:30;;;;;;;7.90;7.20;;;;;;;;;;10088940;28;20046;-69
2023/09/22 12:50:27;;;;;;;7.80;7.10;;;;;;;;;;10100696;28;20081;-70
2023/09/22 12:55:24;;;;;;;7.88;6.88;;;;;;;;;;10088118;28;20104;-71
2023/09/22 13:00:21;;;;;;;7.80;7.00;;;;;;;;;;10085295;28;20074;-69
2023/09/22 13:05:17;;;;;;;7.63;6.82;;;;;;;;;;10084377;28;20432;-71
2023/09/22 13:10:14;;;;;;;8.40;6.90;;;;;;;;;;10094939;28;20058;-69
2023/09/22 13:15:11;;;;;;;6.55;6.00;;;;;;;;;;10075321;28;20059;-71
2023/09/22 13:20:07;;;;;;;7.22;5.93;;;;;;;;;;10074018;28;20054;-71
2023/09/22 13:25:04;;;;;;;7.82;6.05;;;;;;;;;;10088037;28;20055;-71
2023/09/22 13:30:01;;;;;;;8.07;6.15;;;;;;;;;;10076884;28;20065;-70
2023/09/22 13:34:59;;;;;;;6.38;5.78;;;;;;;;;;10092957;28;20729;-70
2023/09/22 13:39:55;;;;;;;6.68;5.95;;;;;;;;;;10092779;28;20141;-71
2023/09/22 13:44:52;;;;;;;6.40;5.90;;;;;;;;;;10091307;28;20062;-70
2023/09/22 13:49:50;;;;;;;7.35;5.70;;;;;;;;;;10095425;28;20066;-71
2023/09/22 13:54:49;;;;;;;6.63;6.13;;;;;;;;;;10090429;28;20058;-70
2023/09/22 13:59:45;;;;;;;6.43;5.90;;;;;;;;;;10085148;28;20506;-70
2023/09/22 14:04:41;;;;;;;6.03;5.53;;;;;;;;;;10097275;28;20055;-70
2023/09/22 14:09:38;;;;;;;5.63;5.13;;;;;;;;;;10099989;28;20158;-70
2023/09/22 14:14:34;;;;;;;6.30;5.80;;;;;;;;;;10093544;28;20098;-71
2023/09/22 14:19:33;;;;;;;6.43;5.90;;;;;;;;;;10079357;28;20047;-70
2023/09/22 14:24:29;;;;;;;6.57;5.97;;;;;;;;;;10101847;28;20059;-70
2023/09/22 14:29:26;;;;;;;7.05;5.90;;;;;;;;;;10097874;28;20062;-70
2023/09/22 14:34:23;;;;;;;5.85;5.38;;;;;;;;;;10101875;28;20054;-70
2023/09/22 14:39:19;;;;;;;5.95;5.40;;;;;;;;;;10097506;28;20157;-70
2023/09/22 14:44:15;;;;;;;6.22;5.72;;;;;;;;;;10084943;28;20547;-70
2023/09/22 14:49:12;;;;;;;5.97;5.45;;;;;;;;;;10099054;28;20051;-70
2023/09/22 14:54:08;;;;;;;5.90;5.40;;;;;;;;;;10098722;28;20101;-70
2023/09/22 14:59:04;;;;;;;6.10;5.60;;;;;;;;;;10076071;28;20105;-69
2023/09/22 15:04:02;;;;;;;6.47;5.82;;;;;;;;;;10103779;28;20050;-70
2023/09/22 15:08:59;;;;;;;6.20;5.32;;;;;;;;;;10103395;28;20074;-70
2023/09/22 15:13:55;;;;;;;6.70;6.00;;;;;;;;;;10112945;28;20050;-70
2023/09/22 15:18:52;;;;;;;5.78;5.28;;;;;;;;;;10104953;28;20047;-70
2023/09/22 15:23:49;;;;;;;6.53;5.68;;;;;;;;;;10093004;28;20046;-70
2023/09/22 15:28:46;;;;;;;5.40;5.00;;;;;;;;;;10086031;28;20447;-69
2023/09/22 15:33:44;;;;;;;5.55;5.05;;;;;;;;;;10088957;28;20049;-70
2023/09/22 15:38:42;;;;;;;6.15;5.32;;;;;;;;;;10105819;28;20083;-70
2023/09/22 15:43:40;;;;;;;5.85;5.35;;;;;;;;;;10096971;28;20519;-70
2023/09/22 15:48:36;;;;;;;6.50;5.90;;;;;;;;;;10105763;28;20059;-69
2023/09/22 15:53:35;;;;;;;6.70;5.40;;;;;;;;;;10105278;28;20101;-70
2023/09/22 15:58:32;;;;;;;5.85;5.20;;;;;;;;;;10105859;28;20074;-70
2023/09/22 16:03:28;;;;;;;6.82;6.15;;;;;;;;;;10108275;28;20565;-69
2023/09/22 16:08:25;;;;;;;10.07;5.18;;;;;;;;;;10105443;28;20059;-70
2023/09/22 16:13:21;;;;;;;5.50;5.00;;;;;;;;;;10098085;28;20076;-70
2023/09/22 16:18:24;;;;;;;5.63;5.22;;;;;;;;;;10099337;28;20467;-70
2023/09/22 16:23:20;;;;;;;5.70;5.20;;;;;;;;;;10097015;28;20138;-69
2023/09/22 16:28:16;;;;;;;6.78;5.50;;;;;;;;;;10101788;28;20055;-70
2023/09/22 16:33:13;;;;;;;5.97;5.32;;;;;;;;;;10100945;28;20188;-69
2023/09/22 16:38:09;;;;;;;6.03;5.53;;;;;;;;;;10093249;28;20137;-70
2023/09/22 16:43:07;;;;;;;5.85;5.35;;;;;;;;;;10094878;28;20155;-69
2023/09/22 16:48:03;;;;;;;6.10;5.60;;;;;;;;;;10106315;28;20059;-70
2023/09/22 16:53:00;;;;;;;5.78;5.28;;;;;;;;;;10097324;28;20047;-70
2023/09/22 16:57:56;;;;;;;7.55;5.78;;;;;;;;;;10105135;28;20454;-70
2023/09/22 17:02:54;;;;;;;6.10;5.35;;;;;;;;;;10094802;28;20066;-69
2023/09/22 17:07:50;;;;;;;6.20;5.22;;;;;;;;;;10100017;28;20051;-69
2023/09/22 17:12:47;;;;;;;6.82;5.45;;;;;;;;;;10099196;28;20051;-69
2023/09/22 17:17:44;;;;;;;6.78;5.50;;;;;;;;;;10083101;28;20085;-69
2023/09/22 17:22:40;;;;;;;6.32;5.70;;;;;;;;;;10108007;28;20055;-69
2023/09/22 17:27:36;;;;;;;6.15;5.60;;;;;;;;;;10101911;28;20083;-69
2023/09/22 17:32:35;;;;;;;7.25;5.78;;;;;;;;;;10091241;28;20506;-69
2023/09/22 17:37:31;;;;;;;6.40;5.47;;;;;;;;;;10085518;28;20071;-70
2023/09/22 17:42:28;;;;;;;6.75;6.18;;;;;;;;;;10093785;28;20047;-70
2023/09/22 17:47:24;;;;;;;6.80;6.20;;;;;;;;;;10085080;28;20051;-69
2023/09/22 17:52:21;;;;;;;5.88;5.38;;;;;;;;;;10090794;28;20772;-69
2023/09/22 17:57:17;;;;;;;6.50;5.90;;;;;;;;;;10089334;28;20058;-69
2023/09/22 18:02:13;;;;;;;8.10;6.55;;;;;;;;;;10073357;28;20074;-69
2023/09/22 18:07:10;;;;;;;6.35;5.60;;;;;;;;;;10075576;28;20459;-69
2023/09/22 18:12:07;;;;;;;7.85;6.25;;;;;;;;;;10097303;28;20054;-69
2023/09/22 18:17:04;;;;;;;6.45;5.70;;;;;;;;;;10105559;28;20051;-70
2023/09/22 18:22:01;;;;;;;6.88;6.28;;;;;;;;;;10081112;28;20061;-69
2023/09/22 18:26:58;;;;;;;7.50;6.45;;;;;;;;;;10109946;28;20050;-70
2023/09/22 18:31:54;;;;;;;5.82;5.40;;;;;;;;;;10104479;28;20062;-71
2023/09/22 18:36:51;;;;;;;6.70;6.10;;;;;;;;;;10085657;28;20118;-71
2023/09/22 18:41:47;;;;;;;6.10;5.55;;;;;;;;;;10100838;28;20503;-70
2023/09/22 18:46:43;;;;;;;6.93;6.10;;;;;;;;;;10105727;28;20624;-70
2023/09/22 18:51:41;;;;;;;6.50;5.95;;;;;;;;;;10098947;28;20055;-72
2023/09/22 18:56:39;;;;;;;7.15;6.47;;;;;;;;;;10104265;28;20462;-71
2023/09/22 19:01:35;;;;;;;7.20;6.28;;;;;;;;;;10103660;28;20075;-71
2023/09/22 19:06:32;;;;;;;6.93;6.28;;;;;;;;;;10110320;28;20055;-72
2023/09/22 19:11:31;;;;;;;6.75;5.90;;;;;;;;;;10113046;28;20058;-72
2023/09/22 19:16:28;;;;;;;7.75;7.05;;;;;;;;;;10098104;28;20151;-72
2023/09/22 19:21:33;;;;;;;10.23;7.10;;;;;;;;;;10101748;28;20093;-72
2023/09/22 19:26:33;;;;;;;10.80;6.70;;;;;;;;;;10110542;28;20221;-72
2023/09/22 19:31:32;;;;;;;8.57;7.38;;;;;;;;;;10097106;28;20051;-72
2023/09/22 19:36:28;;;;;;;7.97;6.97;;;;;;;;;;10096468;28;20094;-72
2023/09/22 19:41:24;;;;;;;11.52;7.05;;;;;;;;;;10104136;28;20487;-72
2023/09/22 19:46:21;;;;;;;8.60;7.57;;;;;;;;;;10104886;28;20106;-72
2023/09/22 19:51:19;;;;;;;8.82;7.93;;;;;;;;;;10100482;28;20434;-72
2023/09/22 19:56:16;;;;;;;13.82;8.60;;;;;;;;;;10103079;28;20511;-72
2023/09/22 20:01:12;;;;;;;8.70;7.40;;;;;;;;;;10082058;28;20054;-72
2023/09/22 20:06:09;;;;;;;7.68;6.93;;;;;;;;;;10104932;28;20043;-72
2023/09/22 20:11:06;;;;;;;9.13;8.18;;;;;;;;;;10093887;28;20107;-72
2023/09/22 20:16:04;;;;;;;8.35;7.55;;;;;;;;;;10102978;28;20055;-72
2023/09/22 20:21:04;;;;;;;8.48;7.65;;;;;;;;;;10095826;28;20649;-72
2023/09/22 20:26:03;;;;;;;8.98;8.18;;;;;;;;;;10096522;28;20188;-72
2023/09/22 20:30:59;;;;;;;8.88;7.93;;;;;;;;;;10102001;28;20058;-72
2023/09/22 20:36:03;;;;;;;8.93;8.07;;;;;;;;;;10098656;28;20539;-72
2023/09/22 20:40:59;;;;;;;11.13;8.73;;;;;;;;;;10106087;28;20507;-72
2023/09/22 20:46:00;;;;;;;9.70;8.70;;;;;;;;;;10099379;28;20128;-72
2023/09/22 20:50:57;;;;;;;10.35;8.75;;;;;;;;;;10114503;28;20086;-72
2023/09/22 20:55:53;;;;;;;10.82;9.20;;;;;;;;;;10095713;28;20569;-72
2023/09/22 21:00:51;;;;;;;11.48;9.95;;;;;;;;;;10111004;28;20074;-72
2023/09/22 21:05:47;;;;;;;16.15;12.07;;;;;;;;;;10097963;28;20375;-72
2023/09/22 21:10:44;;;;;;;12.18;10.65;;;;;;;;;;10101844;28;20051;-72
2023/09/22 21:15:50;;;;;;;11.48;9.23;;;;;;;;;;10093942;28;20076;-72
2023/09/22 21:20:47;;;;;;;11.10;8.60;;;;;;;;;;10113503;28;20105;-72
2023/09/22 21:25:47;;;;;;;9.23;8.32;;;;;;;;;;10098430;28;20058;-72
2023/09/22 21:30:44;;;;;;;8.70;7.80;;;;;;;;;;10097731;28;20081;-72
2023/09/22 21:35:41;;;;;;;14.70;8.57;;;;;;;;;;10095881;28;20224;-72
2023/09/22 21:40:37;;;;;;;10.48;8.48;;;;;;;;;;10088390;28;20062;-72
2023/09/22 21:45:37;;;;;;;10.43;8.50;;;;;;;;;;10091802;28;20138;-72
2023/09/22 21:50:34;;;;;;;9.60;8.70;;;;;;;;;;10097135;28;20075;-72
2023/09/22 21:55:32;;;;;;;9.60;8.73;;;;;;;;;;10089451;28;20051;-72
2023/09/22 22:00:28;;;;;;;9.80;8.90;;;;;;;;;;10105639;28;20050;-72
2023/09/22 22:05:28;;;;;;;13.98;9.10;;;;;;;;;;10096027;28;20059;-71
2023/09/22 22:10:25;;;;;;;10.77;9.13;;;;;;;;;;10089926;28;20055;-71
2023/09/22 22:15:21;;;;;;;10.52;9.52;;;;;;;;;;10081274;28;20055;-72
2023/09/22 22:20:23;;;;;;;9.65;8.57;;;;;;;;;;10099308;28;20472;-71
2023/09/22 22:25:20;;;;;;;10.25;9.15;;;;;;;;;;10085642;28;20134;-71
2023/09/22 22:30:20;;;;;;;15.23;9.77;;;;;;;;;;10089713;28;20047;-72
2023/09/22 22:35:17;;;;;;;11.93;8.88;;;;;;;;;;10100886;28;20125;-71
2023/09/22 22:40:13;;;;;;;10.10;9.18;;;;;;;;;;10093800;28;20054;-71
2023/09/22 22:45:11;;;;;;;9.23;8.43;;;;;;;;;;10072437;28;20059;-71
2023/09/22 22:50:09;;;;;;;9.63;8.68;;;;;;;;;;10103282;28;20550;-71
2023/09/22 22:55:06;;;;;;;9.88;8.63;;;;;;;;;;10085948;28;20055;-71
2023/09/22 23:00:09;;;;;;;9.85;8.90;;;;;;;;;;10094564;28;20503;-71
2023/09/22 23:05:10;;;;;;;9.98;8.70;;;;;;;;;;10099305;28;20059;-71
2023/09/22 23:10:07;;;;;;;11.63;9.05;;;;;;;;;;10104154;28;20109;-71
2023/09/22 23:15:06;;;;;;;9.27;8.38;;;;;;;;;;10106887;28;20059;-71
2023/09/22 23:20:07;;;;;;;10.57;9.52;;;;;;;;;;10103632;28;20050;-71
2023/09/22 23:25:04;;;;;;;9.60;8.80;;;;;;;;;;10105778;28;20066;-71
2023/09/22 23:30:02;;;;;;;10.15;9.23;;;;;;;;;;10109673;28;20055;-71
2023/09/22 23:34:59;;;;;;;10.18;9.23;;;;;;;;;;10101972;28;20073;-71
2023/09/22 23:40:01;;;;;;;9.80;8.90;;;;;;;;;;10100275;28;20047;-71
2023/09/22 23:44:57;;;;;;;12.07;9.77;;;;;;;;;;10093086;28;20059;-71
2023/09/22 23:49:55;;;;;;;10.93;9.82;;;;;;;;;;10091749;28;20102;-71
2023/09/22 23:54:52;;;;;;;9.43;8.52;;;;;;;;;;10105595;28;20051;-71
2023/09/22 23:59:49;;;;;;;10.45;9.07;;;;;;;;;;10088720;28;20380;-71
